Terminal Aerodrome Forecast
Issued by NWS

Home | Current Version | Previous Version | Graphics & Text | Print | Product List | Glossary Off
Versions: 1 2 3 4 5 6 7 8 9 10 11 12 13 14 15 16 17

000
FTUS43 KDDC 152300
TAFGCK
TAF
KGCK 152320Z 1600/1624 18015G23KT P6SM BKN250
     FM161000 20012KT P6SM SCT250
     FM161500 35018G26KT P6SM FEW250=

USA.gov is the U.S. government's official web portal to all federal, state and local government web resources and services.